Aviation Digital Data Service (ADDS)

Output produced by METARs form (1153 UTC 30 August 2015)
found at http://aviationweather.gov/adds/metars/
 
KFKL 301134Z 3012/3112 20007KT P6SM -SHRA OVC100 
     FM301500 25008KT P6SM VCSH BKN035 
     FM310000 VRB03KT P6SM BKN050 
     FM310800 VRB02KT 3SM BR SCT050 AMD LTD TO CLD VIS AND WIND